Wetterdaten: Woche 15.12.03 - 21.12.03 (KW51)
Datum Zeit Temperatur Luftfeuchte Luftdruck Regenmenge Wind Richtung Taupunkt Windchill
15.12.2003 00:00 4.4 C 73 % 1019.5 hPa 0.0 l/m 23.5 km/h (4 Bft) W -0.0 C 0.1 C
15.12.2003 01:00 4.1 C 72 % 1019.1 hPa 0.0 l/m 17.6 km/h (3 Bft) W -0.4 C 0.5 C
15.12.2003 02:00 4.4 C 72 % 1019.1 hPa 0.0 l/m 25.6 km/h (4 Bft) W-NW -0.2 C -0.3 C
15.12.2003 03:00 4.2 C 71 % 1018.8 hPa 0.0 l/m 29.6 km/h (5 Bft) W-NW -0.5 C -0.8 C
15.12.2003 04:00 4.3 C 71 % 1018.1 hPa 0.0 l/m 21.7 km/h (4 Bft) W-NW -0.5 C 0.1 C
15.12.2003 05:00 4.1 C 76 % 1018.1 hPa 0.0 l/m 39.3 km/h (6 Bft) W-NW 0.2 C -1.9 C
15.12.2003 06:00 3.8 C 80 % 1018.1 hPa 0.0 l/m 37.9 km/h (5 Bft) W-NW 0.7 C -2.1 C
15.12.2003 07:00 3.6 C 80 % 1019.0 hPa 0.3 l/m 28.8 km/h (5 Bft) W-NW 0.5 C -1.7 C
15.12.2003 08:00 2.2 C 87 % 1020.0 hPa 2.5 l/m 13.1 km/h (3 Bft) NW 0.3 C -0.6 C
15.12.2003 09:00 2.0 C 75 % 1020.5 hPa 0.0 l/m 8.2 km/h (2 Bft) NW -2.0 C -0.0 C
15.12.2003 10:00 2.1 C 80 % 1021.2 hPa 0.0 l/m 2.9 km/h (1 Bft) S -1.0 C 1.5 C
15.12.2003 11:00 2.9 C 76 % 1021.2 hPa 0.0 l/m 7.4 km/h (2 Bft) SO -0.9 C 1.0 C
15.12.2003 12:00 3.7 C 58 % 1021.2 hPa 0.0 l/m 28.8 km/h (4 Bft) W-NW -3.8 C -1.4 C
15.12.2003 13:00 3.8 C 54 % 1021.2 hPa 0.0 l/m 35.3 km/h (5 Bft) W-NW -4.7 C -1.6 C
15.12.2003 14:00 2.8 C 60 % 1021.5 hPa 0.0 l/m 23.7 km/h (4 Bft) W-NW -4.2 C -2.1 C
15.12.2003 15:00 2.0 C 73 % 1022.1 hPa 0.0 l/m 16.9 km/h (3 Bft) W-NW -2.5 C -1.8 C
15.12.2003 16:00 1.3 C 81 % 1022.2 hPa 0.0 l/m 19.6 km/h (3 Bft) W-NW -1.5 C -3.5 C
15.12.2003 17:00 1.1 C 83 % 1022.4 hPa 0.0 l/m 16.5 km/h (3 Bft) W-NW -1.4 C -3.0 C
15.12.2003 18:00 1.0 C 86 % 1023.3 hPa 0.3 l/m 23.8 km/h (4 Bft) W-NW -1.0 C -4.4 C
15.12.2003 19:00 1.0 C 87 % 1023.3 hPa 0.0 l/m 27.3 km/h (4 Bft) W-NW -1.0 C -4.9 C
15.12.2003 20:00 0.9 C 88 % 1023.3 hPa 0.0 l/m 33.1 km/h (5 Bft) W-NW -0.9 C -5.5 C
15.12.2003 21:00 1.1 C 87 % 1023.3 hPa 0.3 l/m 31.4 km/h (5 Bft) W-NW -0.8 C -5.2 C
15.12.2003 22:00 1.0 C 88 % 1023.8 hPa 0.0 l/m 27.4 km/h (4 Bft) W-NW -0.8 C -4.9 C
15.12.2003 23:00 0.6 C 88 % 1024.3 hPa 0.0 l/m 23.9 km/h (4 Bft) W-NW -1.2 C -5.0 C
16.12.2003 00:00 0.4 C 88 % 1024.3 hPa 0.0 l/m 18.8 km/h (3 Bft) W-NW -1.3 C -4.3 C
16.12.2003 01:00 0.2 C 89 % 1025.2 hPa 0.3 l/m 4.7 km/h (1 Bft) W-NW -1.4 C -1.0 C
16.12.2003 02:00 -0.4 C 89 % 1025.3 hPa 0.0 l/m 1.6 km/h (1 Bft) W-NW -2.0 C -0.8 C
16.12.2003 03:00 -0.4 C 90 % 1026.1 hPa 0.0 l/m 4.5 km/h (1 Bft) W-NW -1.8 C -1.6 C
16.12.2003 04:00 -1.2 C 89 % 1026.4 hPa 0.0 l/m 1.1 km/h (1 Bft) W-NW -2.8 C -1.5 C
16.12.2003 05:00 -2.0 C 88 % 1027.0 hPa 0.0 l/m 3.0 km/h (1 Bft) W-NW -3.7 C -3.0 C
16.12.2003 06:00 -1.3 C 90 % 1027.4 hPa 0.0 l/m 3.6 km/h (1 Bft) W-NW -2.8 C -2.2 C
16.12.2003 07:00 -0.7 C 91 % 1028.4 hPa 0.0 l/m 2.6 km/h (1 Bft) W -2.0 C -1.3 C
16.12.2003 08:00 -0.1 C 91 % 1029.1 hPa 0.0 l/m 5.9 km/h (2 Bft) W-NW -1.4 C -1.7 C
16.12.2003 09:00 0.4 C 87 % 1030.0 hPa 0.0 l/m 11.3 km/h (2 Bft) W-NW -1.4 C -2.6 C
16.12.2003 10:00 0.9 C 79 % 1030.5 hPa 0.0 l/m 6.9 km/h (2 Bft) W-NW -2.3 C -1.0 C
16.12.2003 11:00 1.6 C 74 % 1030.5 hPa 0.0 l/m 6.6 km/h (2 Bft) W-NW -2.6 C -0.1 C
16.12.2003 12:00 2.2 C 70 % 1030.5 hPa 0.0 l/m 8.5 km/h (2 Bft) W-NW -2.8 C 0.0 C
16.12.2003 13:00 2.2 C 72 % 1030.5 hPa 0.0 l/m 6.8 km/h (2 Bft) W-NW -2.4 C 0.4 C
16.12.2003 14:00 2.8 C 70 % 1030.5 hPa 0.0 l/m 5.4 km/h (1 Bft) W -2.2 C 1.5 C
16.12.2003 15:00 2.2 C 69 % 1030.5 hPa 0.0 l/m 5.8 km/h (2 Bft) W -2.9 C 0.7 C
16.12.2003 16:00 0.6 C 74 % 1031.1 hPa 0.0 l/m 0.2 km/h (0 Bft) W -3.6 C 0.5 C
16.12.2003 17:00 -0.7 C 82 % 1031.6 hPa 0.0 l/m 5.7 km/h (1 Bft) O-SO -3.5 C -2.4 C
16.12.2003 18:00 -1.9 C 85 % 1031.6 hPa 0.0 l/m 2.3 km/h (1 Bft) O-SO -4.1 C -2.7 C
16.12.2003 19:00 -2.5 C 86 % 1032.5 hPa 0.0 l/m 0.5 km/h (0 Bft) O-SO -4.5 C -2.5 C
16.12.2003 20:00 -2.5 C 87 % 1032.3 hPa 0.0 l/m 0.5 km/h (0 Bft) O-SO -4.4 C -2.5 C
16.12.2003 21:00 -2.3 C 89 % 1031.6 hPa 0.0 l/m 0.0 km/h (0 Bft) N -3.9 C -2.3 C
16.12.2003 22:00 -2.8 C 89 % 1031.6 hPa 0.0 l/m 0.1 km/h (0 Bft) O-SO -4.4 C -2.8 C
16.12.2003 23:00 -2.8 C 88 % 1031.6 hPa 0.0 l/m 2.2 km/h (1 Bft) O-SO -4.5 C -3.6 C
17.12.2003 00:00 -2.9 C 88 % 1031.0 hPa 0.0 l/m 0.0 km/h (0 Bft) N -4.6 C -2.9 C
17.12.2003 01:00 -3.3 C 87 % 1030.5 hPa 0.0 l/m 0.0 km/h (0 Bft) N -5.2 C -3.3 C
17.12.2003 02:00 -3.3 C 87 % 1030.5 hPa 0.0 l/m 0.0 km/h (0 Bft) N -5.2 C -3.3 C
17.12.2003 03:00 -3.2 C 88 % 1029.5 hPa 0.0 l/m 4.2 km/h (1 Bft) O-SO -4.9 C -4.8 C
17.12.2003 04:00 -3.1 C 87 % 1029.5 hPa 0.0 l/m 4.5 km/h (1 Bft) O-SO -5.0 C -4.5 C
17.12.2003 05:00 -3.4 C 87 % 1029.5 hPa 0.0 l/m 6.5 km/h (2 Bft) O-SO -5.3 C -5.8 C
17.12.2003 06:00 -3.1 C 87 % 1029.5 hPa 0.0 l/m 8.2 km/h (2 Bft) O-SO -4.9 C -5.9 C
17.12.2003 07:00 -3.2 C 87 % 1029.5 hPa 0.0 l/m 2.5 km/h (1 Bft) O-SO -5.0 C -3.5 C
17.12.2003 08:00 -3.6 C 86 % 1029.2 hPa 0.0 l/m 0.0 km/h (0 Bft) N -5.7 C -3.6 C
17.12.2003 09:00 -2.6 C 89 % 1028.5 hPa 0.0 l/m 0.7 km/h (0 Bft) SO -4.2 C -2.7 C
17.12.2003 10:00 -1.0 C 89 % 1028.3 hPa 0.0 l/m 0.0 km/h (0 Bft) N -2.6 C -1.0 C
17.12.2003 11:00 0.0 C 82 % 1027.5 hPa 0.0 l/m 2.6 km/h (1 Bft) O-SO -2.7 C -0.8 C
17.12.2003 12:00 1.1 C 74 % 1027.4 hPa 0.0 l/m 2.9 km/h (1 Bft) O-SO -3.0 C 0.4 C
17.12.2003 13:00 1.7 C 68 % 1026.8 hPa 0.0 l/m 2.8 km/h (1 Bft) SO -3.5 C 1.3 C
17.12.2003 14:00 2.1 C 70 % 1026.4 hPa 0.0 l/m 3.6 km/h (1 Bft) O-SO -2.9 C 1.2 C
17.12.2003 15:00 1.4 C 71 % 1026.4 hPa 0.0 l/m 7.5 km/h (2 Bft) SO -3.4 C -1.0 C
17.12.2003 16:00 -0.3 C 77 % 1027.0 hPa 0.0 l/m 5.2 km/h (1 Bft) O-SO -3.8 C -1.8 C
17.12.2003 17:00 -1.3 C 83 % 1027.4 hPa 0.0 l/m 4.8 km/h (1 Bft) O-SO -3.8 C -2.8 C
17.12.2003 18:00 -1.9 C 84 % 1027.4 hPa 0.0 l/m 2.5 km/h (1 Bft) O-SO -4.2 C -2.3 C
17.12.2003 19:00 -2.4 C 85 % 1027.5 hPa 0.0 l/m 4.3 km/h (1 Bft) O-SO -4.5 C -3.4 C
17.12.2003 20:00 -2.3 C 87 % 1027.4 hPa 0.0 l/m 2.3 km/h (1 Bft) O-SO -4.1 C -2.7 C
17.12.2003 21:00 -2.2 C 88 % 1027.4 hPa 0.0 l/m 0.6 km/h (0 Bft) O-SO -3.9 C -2.3 C
17.12.2003 22:00 -2.6 C 88 % 1027.4 hPa 0.0 l/m 4.7 km/h (1 Bft) O-SO -4.3 C -4.1 C
17.12.2003 23:00 -3.4 C 87 % 1027.4 hPa 0.0 l/m 1.4 km/h (1 Bft) O-SO -5.2 C -3.9 C
18.12.2003 00:00 -3.9 C 87 % 1027.4 hPa 0.0 l/m 3.5 km/h (1 Bft) O-SO -5.7 C -5.0 C
18.12.2003 01:00 -4.2 C 88 % 1027.4 hPa 0.0 l/m 6.0 km/h (2 Bft) O-SO -5.9 C -6.5 C
18.12.2003 02:00 -4.7 C 88 % 1027.4 hPa 0.0 l/m 2.8 km/h (1 Bft) O-SO -6.4 C -5.7 C
18.12.2003 03:00 -4.8 C 88 % 1027.4 hPa 0.0 l/m 1.4 km/h (1 Bft) O-SO -6.5 C -5.2 C
18.12.2003 04:00 -5.2 C 86 % 1027.4 hPa 0.0 l/m 0.7 km/h (0 Bft) O-SO -7.2 C -5.4 C
18.12.2003 05:00 -5.6 C 84 % 1027.1 hPa 0.0 l/m 0.0 km/h (0 Bft) N -7.8 C -5.6 C
18.12.2003 06:00 -5.6 C 83 % 1027.0 hPa 0.0 l/m 0.0 km/h (0 Bft) N -7.9 C -5.6 C
18.12.2003 07:00 -5.9 C 83 % 1027.4 hPa 0.0 l/m 0.0 km/h (0 Bft) N -8.4 C -5.9 C
18.12.2003 08:00 -4.6 C 91 % 1027.4 hPa 0.0 l/m 0.0 km/h (0 Bft) N -5.8 C -4.6 C
18.12.2003 09:00 -3.6 C 94 % 1027.4 hPa 0.0 l/m 0.0 km/h (0 Bft) N -4.4 C -3.6 C
18.12.2003 10:00 -2.4 C 94 % 1027.3 hPa 0.0 l/m 0.4 km/h (0 Bft) O-SO -3.3 C -2.6 C
18.12.2003 11:00 -1.2 C 91 % 1026.4 hPa 0.0 l/m 4.1 km/h (1 Bft) O-SO -2.5 C -2.2 C
18.12.2003 12:00 -0.4 C 85 % 1025.6 hPa 0.0 l/m 13.0 km/h (3 Bft) O-SO -2.6 C -4.5 C
18.12.2003 13:00 0.3 C 82 % 1024.8 hPa 0.0 l/m 10.2 km/h (2 Bft) O-SO -2.4 C -2.9 C
18.12.2003 14:00 0.3 C 82 % 1024.3 hPa 0.0 l/m 6.8 km/h (2 Bft) O-SO -2.5 C -1.8 C
18.12.2003 15:00 0.0 C 82 % 1024.3 hPa 0.0 l/m 2.9 km/h (1 Bft) O-SO -2.6 C -0.7 C
18.12.2003 16:00 -0.6 C 87 % 1024.3 hPa 0.0 l/m 5.5 km/h (1 Bft) O-SO -2.5 C -2.4 C
18.12.2003 17:00 -0.8 C 88 % 1024.3 hPa 0.0 l/m 7.4 km/h (2 Bft) O-SO -2.6 C -3.3 C
18.12.2003 18:00 -0.8 C 91 % 1024.3 hPa 0.0 l/m 5.4 km/h (1 Bft) O-SO -2.2 C -2.6 C
18.12.2003 19:00 -0.9 C 89 % 1024.3 hPa 0.0 l/m 8.4 km/h (2 Bft) O-SO -2.6 C -3.6 C
18.12.2003 20:00 -1.0 C 91 % 1024.6 hPa 0.0 l/m 0.8 km/h (0 Bft) O-SO -2.3 C -1.2 C
18.12.2003 21:00 -1.2 C 91 % 1025.2 hPa 0.0 l/m 0.5 km/h (0 Bft) O-SO -2.4 C -1.3 C
18.12.2003 22:00 -1.4 C 92 % 1025.2 hPa 0.0 l/m 3.4 km/h (1 Bft) O-SO -2.5 C -2.4 C
18.12.2003 23:00 -1.6 C 92 % 1025.3 hPa 0.0 l/m 4.6 km/h (1 Bft) O-SO -2.7 C -3.0 C
19.12.2003 00:00 -1.5 C 91 % 1024.6 hPa 0.0 l/m 4.7 km/h (1 Bft) O-SO -2.8 C -3.1 C
19.12.2003 01:00 -1.6 C 91 % 1024.3 hPa 0.0 l/m 1.8 km/h (1 Bft) O-SO -2.9 C -2.1 C
19.12.2003 02:00 -1.6 C 90 % 1024.3 hPa 0.0 l/m 0.7 km/h (0 Bft) O-SO -3.0 C -1.8 C
19.12.2003 03:00 -1.5 C 90 % 1024.3 hPa 0.0 l/m 0.0 km/h (0 Bft) N -2.9 C -1.5 C
19.12.2003 04:00 -1.4 C 90 % 1024.0 hPa 0.0 l/m 4.0 km/h (1 Bft) O-SO -2.9 C -2.7 C
19.12.2003 05:00 -1.4 C 92 % 1023.8 hPa 0.0 l/m 2.6 km/h (1 Bft) SO -2.6 C -2.2 C
19.12.2003 06:00 -1.5 C 93 % 1024.3 hPa 0.0 l/m 0.2 km/h (0 Bft) SO -2.6 C -1.5 C
19.12.2003 07:00 -1.4 C 92 % 1024.3 hPa 0.0 l/m 0.0 km/h (0 Bft) N -2.5 C -1.4 C
19.12.2003 08:00 -1.0 C 90 % 1024.5 hPa 0.0 l/m 0.4 km/h (0 Bft) SW -2.4 C -1.0 C
19.12.2003 09:00 -0.6 C 89 % 1025.3 hPa 0.0 l/m 0.0 km/h (0 Bft) N -2.2 C -0.6 C
19.12.2003 10:00 -0.4 C 91 % 1025.3 hPa 0.0 l/m 0.0 km/h (0 Bft) N -1.7 C -0.4 C
19.12.2003 11:00 0.1 C 91 % 1025.3 hPa 0.0 l/m 0.0 km/h (0 Bft) N -1.2 C 0.1 C
19.12.2003 12:00 0.7 C 89 % 1024.3 hPa 0.0 l/m 0.6 km/h (0 Bft) SW -0.9 C 0.5 C
19.12.2003 13:00 1.2 C 86 % 1024.3 hPa 0.0 l/m 0.0 km/h (0 Bft) N -0.9 C 1.2 C
19.12.2003 14:00 1.8 C 83 % 1023.6 hPa 0.0 l/m 0.1 km/h (0 Bft) N -0.8 C 1.8 C
19.12.2003 15:00 2.0 C 81 % 1024.3 hPa 0.0 l/m 0.0 km/h (0 Bft) N -0.9 C 2.0 C
19.12.2003 16:00 1.6 C 85 % 1024.3 hPa 0.0 l/m 0.1 km/h (0 Bft) W-NW -0.8 C 1.6 C
19.12.2003 17:00 1.5 C 85 % 1024.7 hPa 0.0 l/m 1.0 km/h (0 Bft) W-NW -0.7 C 1.2 C
19.12.2003 18:00 1.4 C 85 % 1025.3 hPa 0.0 l/m 0.3 km/h (0 Bft) NW -0.8 C 1.3 C
19.12.2003 19:00 0.8 C 86 % 1025.3 hPa 0.0 l/m 1.2 km/h (1 Bft) O -1.3 C 0.5 C
19.12.2003 20:00 0.6 C 90 % 1025.3 hPa 0.0 l/m 0.0 km/h (0 Bft) N -0.8 C 0.6 C
19.12.2003 21:00 0.1 C 90 % 1025.3 hPa 0.0 l/m 0.3 km/h (0 Bft) O -1.3 C 0.1 C
19.12.2003 22:00 -0.3 C 89 % 1025.3 hPa 0.0 l/m 0.0 km/h (0 Bft) N -1.8 C -0.3 C
19.12.2003 23:00 0.0 C 95 % 1025.3 hPa 0.0 l/m 0.7 km/h (0 Bft) O -0.7 C -0.1 C
20.12.2003 00:00 0.1 C 96 % 1025.3 hPa 0.0 l/m 0.0 km/h (0 Bft) N -0.4 C 0.1 C
20.12.2003 01:00 0.1 C 96 % 1025.3 hPa 0.0 l/m 0.0 km/h (0 Bft) N -0.4 C 0.1 C
20.12.2003 02:00 -0.2 C 90 % 1025.8 hPa 0.0 l/m 0.0 km/h (0 Bft) N -1.6 C -0.2 C
20.12.2003 03:00 -0.5 C 90 % 1026.4 hPa 0.0 l/m 0.2 km/h (0 Bft) O -1.9 C -0.5 C
20.12.2003 04:00 -1.0 C 89 % 1026.4 hPa 0.0 l/m 0.0 km/h (0 Bft) N -2.5 C -1.0 C
20.12.2003 05:00 -1.0 C 91 % 1025.5 hPa 0.0 l/m 0.0 km/h (0 Bft) N -2.3 C -1.0 C
20.12.2003 06:00 -0.8 C 99 % 1025.3 hPa 0.0 l/m 0.0 km/h (0 Bft) N -0.9 C -0.8 C
20.12.2003 07:00 -0.7 C 98 % 1025.3 hPa 0.0 l/m 0.0 km/h (0 Bft) N -0.9 C -0.7 C
20.12.2003 08:00 -0.9 C 95 % 1025.3 hPa 0.0 l/m 0.0 km/h (0 Bft) N -1.6 C -0.9 C
20.12.2003 09:00 -0.2 C 100 % 1025.8 hPa 0.0 l/m 0.0 km/h (0 Bft) N -0.2 C -0.2 C
20.12.2003 10:00 0.6 C 100 % 1025.3 hPa 0.0 l/m 0.9 km/h (0 Bft) O 0.6 C 0.5 C
20.12.2003 11:00 2.4 C 100 % 1024.8 hPa 0.0 l/m 2.5 km/h (1 Bft) O 2.4 C 2.0 C
20.12.2003 12:00 4.8 C 84 % 1023.7 hPa 0.0 l/m 6.4 km/h (2 Bft) SO 2.2 C 3.4 C
20.12.2003 13:00 6.0 C 69 % 1022.4 hPa 0.0 l/m 9.6 km/h (2 Bft) SO 0.7 C 4.2 C
20.12.2003 14:00 6.8 C 66 % 1021.2 hPa 0.0 l/m 4.7 km/h (1 Bft) SO 0.8 C 6.0 C
20.12.2003 15:00 6.2 C 66 % 1020.4 hPa 0.0 l/m 8.8 km/h (2 Bft) SO 0.4 C 4.5 C
20.12.2003 16:00 5.2 C 71 % 1020.1 hPa 0.0 l/m 4.1 km/h (1 Bft) O-SO 0.4 C 4.4 C
20.12.2003 17:00 4.6 C 74 % 1019.4 hPa 0.0 l/m 5.0 km/h (1 Bft) SO 0.4 C 3.6 C
20.12.2003 18:00 4.6 C 75 % 1019.1 hPa 0.0 l/m 3.6 km/h (1 Bft) SW 0.6 C 3.8 C
20.12.2003 19:00 4.8 C 77 % 1018.5 hPa 0.0 l/m 3.2 km/h (1 Bft) SO 1.0 C 4.3 C
20.12.2003 20:00 4.2 C 85 % 1018.1 hPa 0.3 l/m 0.7 km/h (0 Bft) S 1.9 C 4.1 C
20.12.2003 21:00 4.3 C 91 % 1017.5 hPa 0.7 l/m 1.9 km/h (1 Bft) O-SO 3.0 C 4.0 C
20.12.2003 22:00 4.9 C 93 % 1016.3 hPa 0.3 l/m 4.9 km/h (1 Bft) SO 3.8 C 3.9 C
20.12.2003 23:00 7.3 C 79 % 1015.1 hPa 0.0 l/m 24.0 km/h (4 Bft) SO 3.8 C 3.6 C
21.12.2003 00:00 7.0 C 78 % 1014.2 hPa 1.4 l/m 12.9 km/h (3 Bft) SO 3.5 C 4.9 C
21.12.2003 01:00 7.4 C 83 % 1013.1 hPa 3.1 l/m 9.5 km/h (2 Bft) W 4.7 C 5.9 C
21.12.2003 02:00 7.3 C 86 % 1012.7 hPa 2.4 l/m 15.2 km/h (3 Bft) W-SW 5.0 C 4.7 C
21.12.2003 03:00 7.5 C 82 % 1011.4 hPa 1.0 l/m 33.3 km/h (5 Bft) W 4.7 C 3.1 C
21.12.2003 04:00 7.5 C 82 % 1010.1 hPa 2.4 l/m 30.8 km/h (5 Bft) W 4.7 C 3.3 C
21.12.2003 05:00 7.5 C 82 % 1008.9 hPa 1.8 l/m 37.0 km/h (5 Bft) W 4.7 C 3.0 C
21.12.2003 06:00 7.9 C 78 % 1007.7 hPa 0.7 l/m 44.4 km/h (6 Bft) W 4.4 C 3.0 C
21.12.2003 07:00 8.4 C 74 % 1007.5 hPa 0.7 l/m 42.0 km/h (6 Bft) W 4.0 C 3.7 C
21.12.2003 08:00 9.2 C 65 % 1006.7 hPa 0.0 l/m 38.3 km/h (5 Bft) W 3.0 C 5.0 C
21.12.2003 09:00 6.3 C 83 % 1008.2 hPa 4.5 l/m 49.7 km/h (6 Bft) W-NW 3.6 C 0.5 C
21.12.2003 10:00 5.1 C 85 % 1008.9 hPa 1.8 l/m 50.6 km/h (7 Bft) W-NW 2.7 C -1.3 C
21.12.2003 11:00 5.1 C 82 % 1009.5 hPa 0.3 l/m 57.6 km/h (7 Bft) W-NW 2.2 C -1.6 C
21.12.2003 12:00 4.2 C 80 % 1010.5 hPa 0.3 l/m 49.0 km/h (6 Bft) W-NW 1.0 C -2.3 C
21.12.2003 13:00 4.8 C 71 % 1011.4 hPa 0.0 l/m 37.6 km/h (5 Bft) W-NW -0.1 C -0.7 C
21.12.2003 14:00 5.7 C 62 % 1011.8 hPa 0.0 l/m 31.1 km/h (5 Bft) W-NW -1.0 C 1.0 C
21.12.2003 15:00 5.5 C 56 % 1012.7 hPa 0.0 l/m 44.9 km/h (6 Bft) W-NW -2.5 C -0.3 C
21.12.2003 16:00 5.3 C 55 % 1013.7 hPa 0.0 l/m 34.7 km/h (5 Bft) W-NW -2.9 C 0.2 C
21.12.2003 17:00 4.9 C 55 % 1013.9 hPa 0.0 l/m 31.8 km/h (5 Bft) W-NW -3.4 C -0.1 C
21.12.2003 18:00 4.6 C 56 % 1013.9 hPa 0.0 l/m 17.5 km/h (3 Bft) W-NW -3.4 C 1.1 C
21.12.2003 19:00 4.8 C 53 % 1013.9 hPa 0.0 l/m 12.4 km/h (3 Bft) W -4.0 C 2.2 C
21.12.2003 20:00 4.6 C 56 % 1013.9 hPa 0.0 l/m 7.8 km/h (2 Bft) W -3.5 C 3.0 C
21.12.2003 21:00 2.8 C 76 % 1013.9 hPa 2.1 l/m 10.2 km/h (2 Bft) W-NW -1.1 C 0.3 C
21.12.2003 22:00 0.7 C 87 % 1013.9 hPa 3.8 l/m 1.3 km/h (1 Bft) S -1.2 C 0.5 C
21.12.2003 23:00 0.2 C 91 % 1013.9 hPa 2.1 l/m 4.3 km/h (1 Bft) SO -1.1 C -0.8 C
Min-Datum _ 18.12.03 15.12.03 21.12.03 - 15.12.03 - 18.12.03 17.12.03
_ Min-Zeit 07:33 13:26 07:51 - 08:38 - 07:36 23:24
Minimum _ -6.1 C 51 % 1006.6 hPa - 0.0 km/h (0 Bft) - -8.7 C -8.2 C
Max-Datum _ 21.12.03 20.12.03 16.12.03 21.12.03 21.12.03 - 20.12.03 21.12.03
_ Max-Zeit 08:48 06:15 19:06 09:05 11:08 - 23:06 01:26
Maximum _ 9.5 C 100 % 1032.6 hPa 4.5 l/m 80.6 km/h
W-NW (9 Bft)
- 5.2 C 7.4 C
Durchschnitt _ 0.9 C 83 % 1023.3 hPa #34.0 l/m 9.7 km/h (2 Bft) W-NW -1.8 C -0.9 C

Durchschnitt Minimum Temp.0.4 C
Durchschnitt Maximum Temp.1.3 C
© Kaiko 2003